首页
METAR-TAF:

METAR-TAF

机场 :

布里斯班機場

布里斯班, 澳大利亚

纬度: 27-23S, 经度: 153-06E, 海拔: 4米

当前天气观测

该预报发布于19分钟前的05:30 UTC
风速9节,风向东转东北
温度 23°C
湿度 65%
气压 1016 hPa
能见度10公里或以上
少量云层高于3500英尺
散云层高于7000英尺

METAR: YBBN 190530Z 06009KT 9999 FEW035 SCT070 23/16 Q1016

时间: 15:49 (05:49 UTC)

预报

该预报发布于41分钟前的05:08 UTC
预报有效从19日的 06点(UTC)到 20日的 12点(UTC)
风速10节,风向东转东北
能见度10公里或以上
少量云层高于3000英尺
散云层高于6000英尺
从 19日的 1000点(UTC)
风速5节,风向多变
能见度10公里或以上
散云层高于1500英尺
从 20日的 0000点(UTC)
风速11节,风向东北
能见度10公里或以上
少量云层高于3500英尺

TAF: YBBN 190508Z 1906/2012 07010KT 9999 FEW030 SCT060 FM191000 VRB05KT 9999 SCT015 FM200000 04011KT 9999 FEW035

超过4000个机场的气象观测和天气预报(METAR&TAF报告)。

可查询的气象台以黄色和红色小点在地图上表示。

将鼠标移到小点上方,可查看气象台名称。

然后点击查看天气观测和预报。

如需切换地图:点击带黑十字的绿色按钮放大地图;点击带横线的绿色按钮缩小地图;或者点击绿色箭头查看邻近地区的地图。


METAR-TAF: